(°C)
-3°
-4°
-5°
-6°
-6°
-4°
-1°
(°C)
-9°
-10°
-10°
-11°
-11°
-9°
-6°
NE
ENE
ENE
NE
NE
N
NV
(km/h)
11-24
10-23
10-21
9-18
9-16
8-15
8-15
(mm)
0
0
0
0
0.1
0.2
0.3
(%)
73
83
80
77
87
63
39

Sun elevation

/ -33.8°
sun-icon
UV 11
06:27
19:44
Primul pătrar (26°)
07:54
22:27

METAR for Walden (K33V)

Ora Conditions Temperatură/
Punctul de rouă
Vânt Vizibilitate Vremea Nori Presiune Change Raw
LIFR -3.5°C / -5.2°C 70º 7kt 1600m - Overcast 300ft - K33V 140835Z AUTO 07007KT 1SM OVC003 M03/M05 A3000 RMK AO2 T10351052
LIFR -2.7°C / -4.3°C 60º 5kt 1200m - Overcast 300ft - K33V 140815Z AUTO 06005KT 3/4SM OVC003 M03/M04 A3001 RMK AO2 T10271043
LIFR -2.7°C / -4.5°C 70º 7kt 800m - Overcast 300ft - K33V 140755Z AUTO 07007KT 1/2SM OVC003 M03/M04 A3000 RMK AO2 T10271045
IFR -2.4°C / -4.4°C 70º 9kt 2800m - Broken Clouds 700ft - K33V 140735Z AUTO 07009KT 1 3/4SM BKN007 OVC012 M02/M04 A3000 RMK AO2 T10241044
IFR -1.3°C / -3°C 70º 7kt 3200m - Broken Clouds 1000ft - K33V 140715Z AUTO 07007KT 2SM BKN010 OVC015 M01/M03 A3000 RMK AO2 T10131030
IFR -1.3°C / -3.1°C 70º 8kt 2800m - Scattered Clouds 800ft - K33V 140655Z AUTO 07008KT 1 3/4SM SCT008 BKN014 OVC021 M01/M03 A3000 RMK AO2 T10131031
IFR -1.3°C / -2.7°C 70º 5kt 3200m - Scattered Clouds 900ft - K33V 140635Z AUTO 07005KT 2SM SCT009 BKN014 OVC021 M01/M03 A3000 RMK AO2 T10131027
IFR -1.3°C / -3°C 290º 5kt 3200m - Scattered Clouds 600ft - K33V 140615Z AUTO 29005KT 2SM SCT006 BKN010 OVC016 M01/M03 A3001 RMK AO2 T10131030
IFR -2.2°C / -4.4°C 270º 6kt 2000m - Broken Clouds 600ft - K33V 140555Z AUTO 27006KT 1 1/4SM BKN006 OVC012 M02/M04 A3000 RMK AO2 T10221044 10041 21022
MVFR -1.3°C / -4.6°C 350º 4kt 6400m - Broken Clouds 2300ft - K33V 140535Z AUTO 35004KT 4SM BKN023 OVC029 M01/M05 A3000 RMK AO2 T10131046
MVFR -1.2°C / -6.7°C 30º 11kt 8000m - Overcast 2100ft - K33V 140515Z AUTO 03011KT 5SM OVC021 M01/M07 A3001 RMK AO2 T10121067
MVFR -0.7°C / -6.9°C 330º 7kt >10km - Overcast 2100ft - K33V 140455Z AUTO 33007KT 10SM OVC021 M01/M07 A3000 RMK AO2 T10071069
MVFR -0.8°C / -7.2°C 310º 6kt >10km - Overcast 2100ft - K33V 140435Z AUTO 31006KT 10SM OVC021 M01/M07 A3000 RMK AO2 T10081072
MVFR -1°C / -7.5°C 300º 8kt >10km - Overcast 2100ft - K33V 140415Z AUTO 30008KT 10SM OVC021 M01/M07 A3001 RMK AO2 T10101075
MVFR -0.2°C / -7.2°C 310º 3kt >10km - Overcast 2300ft - K33V 140355Z AUTO 31003KT 10SM OVC023 00/M07 A3001 RMK AO2 T10021072 400561083
MVFR -0.6°C / -7.4°C 310º 6kt >10km - Broken Clouds 2500ft - K33V 140335Z AUTO 31006KT 10SM BKN025 OVC032 M01/M07 A3001 RMK AO2 T10061074
MVFR -1.1°C / -7.9°C 320º 4kt >10km - Broken Clouds 2500ft - K33V 140315Z AUTO 32004KT 10SM BKN025 BKN034 OVC047 M01/M08 A3001 RMK AO2 T10111079
VFR -1.2°C / -8.2°C 310º 8kt >10km - Scattered Clouds 2700ft - K33V 140255Z AUTO 31008KT 10SM SCT027 SCT034 OVC047 M01/M08 A3000 RMK AO2 T10121082
VFR -0.7°C / -8°C 320º 9kt >10km - Scattered Clouds 2400ft - K33V 140235Z AUTO 32009KT 10SM SCT024 OVC045 M01/M08 A3001 RMK AO2 T10071080
MVFR 0°C / -7.9°C 330º 8kt >10km - Overcast 2600ft - K33V 140215Z AUTO 33008KT 10SM OVC026 00/M08 A3000 RMK AO2 T00001079
MVFR 1.3°C / -6.5°C 50º 10kt >10km - Overcast 2600ft - K33V 140155Z AUTO 05010KT 10SM OVC026 01/M06 A3000 RMK AO2 T00131065
MVFR 1.3°C / -6.1°C 60º 11kt >10km - Overcast 2800ft - K33V 140135Z AUTO 06011KT 10SM OVC028 01/M06 A3000 RMK AO2 T00131061
VFR 2.6°C / -6.2°C 70º 10kt Gust 15kt >10km - Overcast 3400ft - K33V 140115Z AUTO 07010G15KT 10SM OVC034 03/M06 A3000 RMK AO2 T00261062
VFR 2.7°C / -7.2°C 60º 6kt >10km - Overcast 3400ft - K33V 140055Z AUTO 06006KT 10SM OVC034 03/M07 A3000 RMK AO2 T00271072

LIFR

-3.5°C / -5.2°C

[Mai mult]
Vânt 70º 7kt
Vizibilitate 1600m
Vremea -
Nori Overcast 300ft
Presiune
Change -
Raw K33V 140835Z AUTO 07007KT 1SM OVC003 M03/M05 A3000 RMK AO2 T10351052

LIFR

-2.7°C / -4.3°C

[Mai mult]
Vânt 60º 5kt
Vizibilitate 1200m
Vremea -
Nori Overcast 300ft
Presiune
Change -
Raw K33V 140815Z AUTO 06005KT 3/4SM OVC003 M03/M04 A3001 RMK AO2 T10271043

LIFR

-2.7°C / -4.5°C

[Mai mult]
Vânt 70º 7kt
Vizibilitate 800m
Vremea -
Nori Overcast 300ft
Presiune
Change -
Raw K33V 140755Z AUTO 07007KT 1/2SM OVC003 M03/M04 A3000 RMK AO2 T10271045

IFR

-2.4°C / -4.4°C

[Mai mult]
Vânt 70º 9kt
Vizibilitate 2800m
Vremea -
Nori Broken Clouds 700ft
Presiune
Change -
Raw K33V 140735Z AUTO 07009KT 1 3/4SM BKN007 OVC012 M02/M04 A3000 RMK AO2 T10241044

IFR

-1.3°C / -3°C

[Mai mult]
Vânt 70º 7kt
Vizibilitate 3200m
Vremea -
Nori Broken Clouds 1000ft
Presiune
Change -
Raw K33V 140715Z AUTO 07007KT 2SM BKN010 OVC015 M01/M03 A3000 RMK AO2 T10131030

IFR

-1.3°C / -3.1°C

[Mai mult]
Vânt 70º 8kt
Vizibilitate 2800m
Vremea -
Nori Scattered Clouds 800ft
Presiune
Change -
Raw K33V 140655Z AUTO 07008KT 1 3/4SM SCT008 BKN014 OVC021 M01/M03 A3000 RMK AO2 T10131031

IFR

-1.3°C / -2.7°C

[Mai mult]
Vânt 70º 5kt
Vizibilitate 3200m
Vremea -
Nori Scattered Clouds 900ft
Presiune
Change -
Raw K33V 140635Z AUTO 07005KT 2SM SCT009 BKN014 OVC021 M01/M03 A3000 RMK AO2 T10131027

IFR

-1.3°C / -3°C

[Mai mult]
Vânt 290º 5kt
Vizibilitate 3200m
Vremea -
Nori Scattered Clouds 600ft
Presiune
Change -
Raw K33V 140615Z AUTO 29005KT 2SM SCT006 BKN010 OVC016 M01/M03 A3001 RMK AO2 T10131030

IFR

-2.2°C / -4.4°C

[Mai mult]
Vânt 270º 6kt
Vizibilitate 2000m
Vremea -
Nori Broken Clouds 600ft
Presiune
Change -
Raw K33V 140555Z AUTO 27006KT 1 1/4SM BKN006 OVC012 M02/M04 A3000 RMK AO2 T10221044 10041 21022

MVFR

-1.3°C / -4.6°C

[Mai mult]
Vânt 350º 4kt
Vizibilitate 6400m
Vremea -
Nori Broken Clouds 2300ft
Presiune
Change -
Raw K33V 140535Z AUTO 35004KT 4SM BKN023 OVC029 M01/M05 A3000 RMK AO2 T10131046

MVFR

-1.2°C / -6.7°C

[Mai mult]
Vânt 30º 11kt
Vizibilitate 8000m
Vremea -
Nori Overcast 2100ft
Presiune
Change -
Raw K33V 140515Z AUTO 03011KT 5SM OVC021 M01/M07 A3001 RMK AO2 T10121067

MVFR

-0.7°C / -6.9°C

[Mai mult]
Vânt 330º 7kt
Vizibilitate >10km
Vremea -
Nori Overcast 2100ft
Presiune
Change -
Raw K33V 140455Z AUTO 33007KT 10SM OVC021 M01/M07 A3000 RMK AO2 T10071069

MVFR

-0.8°C / -7.2°C

[Mai mult]
Vânt 310º 6kt
Vizibilitate >10km
Vremea -
Nori Overcast 2100ft
Presiune
Change -
Raw K33V 140435Z AUTO 31006KT 10SM OVC021 M01/M07 A3000 RMK AO2 T10081072

MVFR

-1°C / -7.5°C

[Mai mult]
Vânt 300º 8kt
Vizibilitate >10km
Vremea -
Nori Overcast 2100ft
Presiune
Change -
Raw K33V 140415Z AUTO 30008KT 10SM OVC021 M01/M07 A3001 RMK AO2 T10101075

MVFR

-0.2°C / -7.2°C

[Mai mult]
Vânt 310º 3kt
Vizibilitate >10km
Vremea -
Nori Overcast 2300ft
Presiune
Change -
Raw K33V 140355Z AUTO 31003KT 10SM OVC023 00/M07 A3001 RMK AO2 T10021072 400561083

MVFR

-0.6°C / -7.4°C

[Mai mult]
Vânt 310º 6kt
Vizibilitate >10km
Vremea -
Nori Broken Clouds 2500ft
Presiune
Change -
Raw K33V 140335Z AUTO 31006KT 10SM BKN025 OVC032 M01/M07 A3001 RMK AO2 T10061074

MVFR

-1.1°C / -7.9°C

[Mai mult]
Vânt 320º 4kt
Vizibilitate >10km
Vremea -
Nori Broken Clouds 2500ft
Presiune
Change -
Raw K33V 140315Z AUTO 32004KT 10SM BKN025 BKN034 OVC047 M01/M08 A3001 RMK AO2 T10111079

VFR

-1.2°C / -8.2°C

[Mai mult]
Vânt 310º 8kt
Vizibilitate >10km
Vremea -
Nori Scattered Clouds 2700ft
Presiune
Change -
Raw K33V 140255Z AUTO 31008KT 10SM SCT027 SCT034 OVC047 M01/M08 A3000 RMK AO2 T10121082

VFR

-0.7°C / -8°C

[Mai mult]
Vânt 320º 9kt
Vizibilitate >10km
Vremea -
Nori Scattered Clouds 2400ft
Presiune
Change -
Raw K33V 140235Z AUTO 32009KT 10SM SCT024 OVC045 M01/M08 A3001 RMK AO2 T10071080

MVFR

0°C / -7.9°C

[Mai mult]
Vânt 330º 8kt
Vizibilitate >10km
Vremea -
Nori Overcast 2600ft
Presiune
Change -
Raw K33V 140215Z AUTO 33008KT 10SM OVC026 00/M08 A3000 RMK AO2 T00001079

MVFR

1.3°C / -6.5°C

[Mai mult]
Vânt 50º 10kt
Vizibilitate >10km
Vremea -
Nori Overcast 2600ft
Presiune
Change -
Raw K33V 140155Z AUTO 05010KT 10SM OVC026 01/M06 A3000 RMK AO2 T00131065

MVFR

1.3°C / -6.1°C

[Mai mult]
Vânt 60º 11kt
Vizibilitate >10km
Vremea -
Nori Overcast 2800ft
Presiune
Change -
Raw K33V 140135Z AUTO 06011KT 10SM OVC028 01/M06 A3000 RMK AO2 T00131061

VFR

2.6°C / -6.2°C

[Mai mult]
Vânt 70º 10kt Gust 15kt
Vizibilitate >10km
Vremea -
Nori Overcast 3400ft
Presiune
Change -
Raw K33V 140115Z AUTO 07010G15KT 10SM OVC034 03/M06 A3000 RMK AO2 T00261062

VFR

2.7°C / -7.2°C

[Mai mult]
Vânt 60º 6kt
Vizibilitate >10km
Vremea -
Nori Overcast 3400ft
Presiune
Change -
Raw K33V 140055Z AUTO 06006KT 10SM OVC034 03/M07 A3000 RMK AO2 T00271072

Current satellite images for Walden, Statele Unite

Markerul cu locaţia este poziţionat pe Walden. [Mai mult]

The real-time satellite image combines visible light during daytime with infrared radiation during nighttime. At night, the image is not dark as infrared radiation can detect temperature differences. Unfortunately, low clouds and fog are difficult to distinguish from ground temperatures and thus can be almost invisible during the night. Meteosat satellite images for Europe are updated in real-time every 5 minutes. GOES-16/GOES-17 (North & South America) and Himawari (Asia) images update every 10 minutes.

Radar și nowcast de precipitații pentru Walden

Markerul de locație este plasat în Walden. Această animație arată radarul de precipitații pentru ultima oră, precum și o 1h prognoză. Bruma și fulguiala pot fi invizibile pe radar. Intensitatea precipitațiilor este reprezentată prin culori, de la albastru deschis la violet închis.